sensor_id;sensor_type;location;lat;lon;timestamp;P1;durP1;ratioP1;P2;durP2;ratioP2
34535;SDS011;20779;55.596;37.538;2022-09-09T00:02:01;1.33;;;1.00;;
34535;SDS011;20779;55.596;37.538;2022-09-09T00:04:36;1.73;;;1.25;;
34535;SDS011;20779;55.596;37.538;2022-09-09T00:09:40;4.20;;;1.02;;
34535;SDS011;20779;55.596;37.538;2022-09-09T00:12:11;1.40;;;1.05;;
34535;SDS011;20779;55.596;37.538;2022-09-09T00:20:16;3.03;;;1.75;;
34535;SDS011;20779;55.596;37.538;2022-09-09T00:28:38;3.28;;;1.52;;
34535;SDS011;20779;55.596;37.538;2022-09-09T00:31:20;3.97;;;1.50;;
34535;SDS011;20779;55.596;37.538;2022-09-09T00:33:52;3.13;;;1.50;;
34535;SDS011;20779;55.596;37.538;2022-09-09T00:36:21;2.58;;;1.23;;
34535;SDS011;20779;55.596;37.538;2022-09-09T00:38:57;4.45;;;1.23;;
34535;SDS011;20779;55.596;37.538;2022-09-09T00:44:30;1.85;;;1.50;;
34535;SDS011;20779;55.596;37.538;2022-09-09T00:47:04;2.42;;;1.60;;
34535;SDS011;20779;55.596;37.538;2022-09-09T00:50:00;2.55;;;1.52;;
34535;SDS011;20779;55.596;37.538;2022-09-09T00:58:47;4.57;;;1.50;;
34535;SDS011;20779;55.596;37.538;2022-09-09T01:01:50;6.28;;;1.60;;
34535;SDS011;20779;55.596;37.538;2022-09-09T01:04:21;1.80;;;1.45;;
34535;SDS011;20779;55.596;37.538;2022-09-09T01:07:18;2.35;;;1.30;;
34535;SDS011;20779;55.596;37.538;2022-09-09T01:09:57;2.15;;;1.50;;
34535;SDS011;20779;55.596;37.538;2022-09-09T01:15:13;2.30;;;1.77;;
34535;SDS011;20779;55.596;37.538;2022-09-09T01:18:02;4.22;;;2.10;;
34535;SDS011;20779;55.596;37.538;2022-09-09T01:23:39;3.75;;;1.92;;
34535;SDS011;20779;55.596;37.538;2022-09-09T01:27:02;3.92;;;1.67;;
34535;SDS011;20779;55.596;37.538;2022-09-09T01:29:31;4.65;;;2.00;;
34535;SDS011;20779;55.596;37.538;2022-09-09T01:31:59;2.88;;;2.00;;
34535;SDS011;20779;55.596;37.538;2022-09-09T01:34:36;5.13;;;2.08;;
34535;SDS011;20779;55.596;37.538;2022-09-09T01:37:07;5.22;;;1.88;;
34535;SDS011;20779;55.596;37.538;2022-09-09T01:39:39;8.50;;;2.10;;
34535;SDS011;20779;55.596;37.538;2022-09-09T01:42:11;2.88;;;2.00;;
34535;SDS011;20779;55.596;37.538;2022-09-09T01:44:41;2.70;;;2.10;;
34535;SDS011;20779;55.596;37.538;2022-09-09T01:47:07;3.40;;;2.50;;
34535;SDS011;20779;55.596;37.538;2022-09-09T01:49:42;3.80;;;2.42;;
34535;SDS011;20779;55.596;37.538;2022-09-09T01:52:17;5.13;;;2.00;;
34535;SDS011;20779;55.596;37.538;2022-09-09T01:54:44;5.13;;;2.53;;
34535;SDS011;20779;55.596;37.538;2022-09-09T01:59:48;4.38;;;2.40;;
34535;SDS011;20779;55.596;37.538;2022-09-09T02:06:05;4.47;;;2.45;;
34535;SDS011;20779;55.596;37.538;2022-09-09T02:09:05;3.60;;;2.10;;
34535;SDS011;20779;55.596;37.538;2022-09-09T02:11:33;3.85;;;2.35;;
34535;SDS011;20779;55.596;37.538;2022-09-09T02:14:14;6.25;;;2.20;;
34535;SDS011;20779;55.596;37.538;2022-09-09T02:16:59;4.20;;;2.55;;
34535;SDS011;20779;55.596;37.538;2022-09-09T02:19:56;3.70;;;2.65;;
34535;SDS011;20779;55.596;37.538;2022-09-09T03:05:46;5.15;;;2.55;;
34535;SDS011;20779;55.596;37.538;2022-09-09T03:08:13;5.50;;;3.10;;
34535;SDS011;20779;55.596;37.538;2022-09-09T03:10:41;3.55;;;2.50;;
34535;SDS011;20779;55.596;37.538;2022-09-09T03:13:10;5.57;;;2.67;;
34535;SDS011;20779;55.596;37.538;2022-09-09T03:15:39;4.72;;;2.78;;
34535;SDS011;20779;55.596;37.538;2022-09-09T03:18:08;3.83;;;2.30;;
34535;SDS011;20779;55.596;37.538;2022-09-09T03:20:35;6.30;;;2.88;;
34535;SDS011;20779;55.596;37.538;2022-09-09T03:23:02;5.20;;;3.35;;
34535;SDS011;20779;55.596;37.538;2022-09-09T03:25:29;4.30;;;2.78;;
34535;SDS011;20779;55.596;37.538;2022-09-09T03:27:58;6.25;;;2.80;;
34535;SDS011;20779;55.596;37.538;2022-09-09T03:30:25;3.97;;;2.80;;
34535;SDS011;20779;55.596;37.538;2022-09-09T03:32:55;4.03;;;2.83;;
34535;SDS011;20779;55.596;37.538;2022-09-09T03:35:25;4.57;;;2.58;;
34535;SDS011;20779;55.596;37.538;2022-09-09T03:37:51;7.97;;;2.60;;
34535;SDS011;20779;55.596;37.538;2022-09-09T03:40:18;3.67;;;2.42;;
34535;SDS011;20779;55.596;37.538;2022-09-09T03:42:45;6.28;;;2.60;;
34535;SDS011;20779;55.596;37.538;2022-09-09T03:45:13;4.63;;;2.60;;
34535;SDS011;20779;55.596;37.538;2022-09-09T03:47:40;3.75;;;2.42;;
34535;SDS011;20779;55.596;37.538;2022-09-09T03:50:07;4.63;;;2.20;;
34535;SDS011;20779;55.596;37.538;2022-09-09T03:52:39;5.60;;;2.63;;
34535;SDS011;20779;55.596;37.538;2022-09-09T03:55:13;4.50;;;2.30;;
34535;SDS011;20779;55.596;37.538;2022-09-09T03:57:39;5.10;;;2.50;;
34535;SDS011;20779;55.596;37.538;2022-09-09T04:00:08;3.97;;;2.60;;
34535;SDS011;20779;55.596;37.538;2022-09-09T04:02:49;4.78;;;2.50;;
34535;SDS011;20779;55.596;37.538;2022-09-09T04:05:17;5.97;;;2.58;;
34535;SDS011;20779;55.596;37.538;2022-09-09T04:07:46;3.72;;;2.55;;
34535;SDS011;20779;55.596;37.538;2022-09-09T04:10:12;3.67;;;2.47;;
34535;SDS011;20779;55.596;37.538;2022-09-09T04:12:39;5.95;;;2.40;;
34535;SDS011;20779;55.596;37.538;2022-09-09T04:15:06;4.35;;;2.15;;
34535;SDS011;20779;55.596;37.538;2022-09-09T04:17:34;3.80;;;2.40;;
34535;SDS011;20779;55.596;37.538;2022-09-09T04:20:02;5.50;;;2.72;;
34535;SDS011;20779;55.596;37.538;2022-09-09T04:22:29;4.10;;;2.53;;
34535;SDS011;20779;55.596;37.538;2022-09-09T04:24:58;3.85;;;2.08;;
34535;SDS011;20779;55.596;37.538;2022-09-09T04:27:24;5.63;;;2.90;;
34535;SDS011;20779;55.596;37.538;2022-09-09T04:29:52;4.40;;;2.78;;
34535;SDS011;20779;55.596;37.538;2022-09-09T04:32:18;4.55;;;2.17;;
34535;SDS011;20779;55.596;37.538;2022-09-09T04:34:45;5.30;;;2.40;;
34535;SDS011;20779;55.596;37.538;2022-09-09T04:37:13;4.68;;;2.40;;
34535;SDS011;20779;55.596;37.538;2022-09-09T04:39:40;5.57;;;2.53;;
34535;SDS011;20779;55.596;37.538;2022-09-09T04:42:06;5.13;;;2.35;;
34535;SDS011;20779;55.596;37.538;2022-09-09T04:44:33;4.40;;;2.40;;
34535;SDS011;20779;55.596;37.538;2022-09-09T04:47:00;6.47;;;2.20;;
34535;SDS011;20779;55.596;37.538;2022-09-09T04:49:26;7.93;;;2.80;;
34535;SDS011;20779;55.596;37.538;2022-09-09T04:51:54;4.10;;;2.53;;
34535;SDS011;20779;55.596;37.538;2022-09-09T04:54:21;5.38;;;2.63;;
34535;SDS011;20779;55.596;37.538;2022-09-09T04:56:50;4.65;;;2.40;;
34535;SDS011;20779;55.596;37.538;2022-09-09T04:59:16;4.35;;;2.35;;
34535;SDS011;20779;55.596;37.538;2022-09-09T05:01:46;6.05;;;2.60;;
34535;SDS011;20779;55.596;37.538;2022-09-09T05:04:13;3.78;;;2.25;;
34535;SDS011;20779;55.596;37.538;2022-09-09T05:06:42;5.50;;;2.58;;
34535;SDS011;20779;55.596;37.538;2022-09-09T05:09:10;4.65;;;2.50;;
34535;SDS011;20779;55.596;37.538;2022-09-09T05:11:36;4.65;;;2.05;;
34535;SDS011;20779;55.596;37.538;2022-09-09T05:14:16;6.90;;;2.38;;
34535;SDS011;20779;55.596;37.538;2022-09-09T05:16:46;6.05;;;2.33;;
34535;SDS011;20779;55.596;37.538;2022-09-09T05:23:39;3.92;;;1.90;;
34535;SDS011;20779;55.596;37.538;2022-09-09T05:26:06;3.33;;;1.75;;
34535;SDS011;20779;55.596;37.538;2022-09-09T05:28:38;3.88;;;2.03;;
34535;SDS011;20779;55.596;37.538;2022-09-09T06:31:21;2.40;;;1.27;;
34535;SDS011;20779;55.596;37.538;2022-09-09T06:33:50;7.28;;;1.52;;
34535;SDS011;20779;55.596;37.538;2022-09-09T06:36:20;5.13;;;1.20;;
34535;SDS011;20779;55.596;37.538;2022-09-09T06:38:48;2.58;;;1.23;;
34535;SDS011;20779;55.596;37.538;2022-09-09T06:41:16;2.78;;;1.33;;
34535;SDS011;20779;55.596;37.538;2022-09-09T06:43:45;1.52;;;0.95;;
34535;SDS011;20779;55.596;37.538;2022-09-09T06:46:16;2.25;;;0.88;;
34535;SDS011;20779;55.596;37.538;2022-09-09T06:48:50;2.30;;;0.70;;
34535;SDS011;20779;55.596;37.538;2022-09-09T06:51:18;3.13;;;0.70;;
34535;SDS011;20779;55.596;37.538;2022-09-09T06:53:50;2.63;;;0.90;;
34535;SDS011;20779;55.596;37.538;2022-09-09T06:58:45;1.83;;;0.90;;
34535;SDS011;20779;55.596;37.538;2022-09-09T07:01:22;2.35;;;1.00;;
34535;SDS011;20779;55.596;37.538;2022-09-09T07:03:56;1.42;;;0.70;;
34535;SDS011;20779;55.596;37.538;2022-09-09T07:06:31;3.13;;;1.10;;
34535;SDS011;20779;55.596;37.538;2022-09-09T07:09:02;1.75;;;1.00;;
34535;SDS011;20779;55.596;37.538;2022-09-09T07:11:32;6.15;;;1.10;;
34535;SDS011;20779;55.596;37.538;2022-09-09T07:14:04;1.63;;;0.75;;
34535;SDS011;20779;55.596;37.538;2022-09-09T07:16:31;3.22;;;0.95;;
34535;SDS011;20779;55.596;37.538;2022-09-09T07:18:59;3.08;;;0.80;;
34535;SDS011;20779;55.596;37.538;2022-09-09T07:21:27;4.03;;;0.80;;
34535;SDS011;20779;55.596;37.538;2022-09-09T07:23:55;2.15;;;0.80;;
34535;SDS011;20779;55.596;37.538;2022-09-09T07:26:23;2.17;;;1.02;;
34535;SDS011;20779;55.596;37.538;2022-09-09T07:28:53;1.60;;;0.80;;
34535;SDS011;20779;55.596;37.538;2022-09-09T07:31:26;1.45;;;0.80;;
34535;SDS011;20779;55.596;37.538;2022-09-09T07:33:57;2.33;;;0.93;;
34535;SDS011;20779;55.596;37.538;2022-09-09T07:36:31;1.65;;;0.80;;
34535;SDS011;20779;55.596;37.538;2022-09-09T07:39:08;2.30;;;0.93;;
34535;SDS011;20779;55.596;37.538;2022-09-09T07:44:14;3.22;;;1.15;;
34535;SDS011;20779;55.596;37.538;2022-09-09T07:46:57;1.92;;;0.95;;
34535;SDS011;20779;55.596;37.538;2022-09-09T07:49:30;1.40;;;0.85;;
34535;SDS011;20779;55.596;37.538;2022-09-09T07:51:58;3.95;;;0.80;;
34535;SDS011;20779;55.596;37.538;2022-09-09T07:54:25;1.65;;;0.93;;
34535;SDS011;20779;55.596;37.538;2022-09-09T07:56:53;1.45;;;0.80;;
34535;SDS011;20779;55.596;37.538;2022-09-09T07:59:23;1.77;;;0.80;;
34535;SDS011;20779;55.596;37.538;2022-09-09T08:01:52;6.13;;;1.08;;
34535;SDS011;20779;55.596;37.538;2022-09-09T08:04:24;2.58;;;0.93;;
34535;SDS011;20779;55.596;37.538;2022-09-09T08:06:58;3.15;;;0.90;;
34535;SDS011;20779;55.596;37.538;2022-09-09T08:09:28;3.38;;;0.95;;
34535;SDS011;20779;55.596;37.538;2022-09-09T08:12:01;4.80;;;1.30;;
34535;SDS011;20779;55.596;37.538;2022-09-09T08:14:29;3.70;;;0.90;;
34535;SDS011;20779;55.596;37.538;2022-09-09T08:16:56;1.17;;;0.90;;
34535;SDS011;20779;55.596;37.538;2022-09-09T08:19:26;3.28;;;0.88;;
34535;SDS011;20779;55.596;37.538;2022-09-09T08:21:55;3.15;;;1.05;;
34535;SDS011;20779;55.596;37.538;2022-09-09T08:24:22;3.55;;;1.10;;
34535;SDS011;20779;55.596;37.538;2022-09-09T08:26:50;1.40;;;0.77;;
34535;SDS011;20779;55.596;37.538;2022-09-09T08:29:22;0.95;;;0.77;;
34535;SDS011;20779;55.596;37.538;2022-09-09T08:31:51;1.33;;;0.65;;
34535;SDS011;20779;55.596;37.538;2022-09-09T08:34:21;1.73;;;0.80;;
34535;SDS011;20779;55.596;37.538;2022-09-09T08:36:50;1.95;;;0.85;;
34535;SDS011;20779;55.596;37.538;2022-09-09T08:39:20;2.78;;;1.00;;
34535;SDS011;20779;55.596;37.538;2022-09-09T08:44:37;2.65;;;1.10;;
34535;SDS011;20779;55.596;37.538;2022-09-09T08:50:35;4.32;;;1.00;;
34535;SDS011;20779;55.596;37.538;2022-09-09T08:53:16;4.20;;;1.08;;
34535;SDS011;20779;55.596;37.538;2022-09-09T08:55:52;3.20;;;1.00;;
34535;SDS011;20779;55.596;37.538;2022-09-09T08:58:48;6.05;;;1.92;;
34535;SDS011;20779;55.596;37.538;2022-09-09T09:07:21;2.10;;;0.98;;
34535;SDS011;20779;55.596;37.538;2022-09-09T09:10:12;3.83;;;1.00;;
34535;SDS011;20779;55.596;37.538;2022-09-09T09:13:20;3.60;;;1.20;;
34535;SDS011;20779;55.596;37.538;2022-09-09T09:15:59;4.60;;;0.90;;
34535;SDS011;20779;55.596;37.538;2022-09-09T09:18:33;1.60;;;1.15;;
34535;SDS011;20779;55.596;37.538;2022-09-09T09:24:16;4.45;;;1.00;;
34535;SDS011;20779;55.596;37.538;2022-09-09T09:26:23;2.70;;;0.73;;
34535;SDS011;20779;55.596;37.538;2022-09-09T09:28:58;3.00;;;0.80;;
34535;SDS011;20779;55.596;37.538;2022-09-09T09:31:28;3.10;;;1.10;;
34535;SDS011;20779;55.596;37.538;2022-09-09T09:33:55;2.42;;;1.00;;
34535;SDS011;20779;55.596;37.538;2022-09-09T09:36:45;1.00;;;0.90;;
34535;SDS011;20779;55.596;37.538;2022-09-09T09:39:26;6.68;;;1.10;;
34535;SDS011;20779;55.596;37.538;2022-09-09T09:41:58;3.53;;;1.00;;
34535;SDS011;20779;55.596;37.538;2022-09-09T09:44:37;5.50;;;1.10;;
34535;SDS011;20779;55.596;37.538;2022-09-09T09:47:13;3.40;;;1.13;;
34535;SDS011;20779;55.596;37.538;2022-09-09T09:49:57;2.38;;;1.00;;
34535;SDS011;20779;55.596;37.538;2022-09-09T09:52:31;3.50;;;0.90;;
34535;SDS011;20779;55.596;37.538;2022-09-09T09:55:02;2.25;;;1.10;;
34535;SDS011;20779;55.596;37.538;2022-09-09T10:00:21;2.05;;;1.02;;
34535;SDS011;20779;55.596;37.538;2022-09-09T10:02:56;2.25;;;1.30;;
34535;SDS011;20779;55.596;37.538;2022-09-09T10:05:30;2.27;;;1.03;;
34535;SDS011;20779;55.596;37.538;2022-09-09T10:08:13;2.15;;;1.10;;
34535;SDS011;20779;55.596;37.538;2022-09-09T10:10:53;5.15;;;1.20;;
34535;SDS011;20779;55.596;37.538;2022-09-09T10:19:37;3.28;;;0.88;;
34535;SDS011;20779;55.596;37.538;2022-09-09T10:22:12;3.42;;;1.00;;
34535;SDS011;20779;55.596;37.538;2022-09-09T10:33:27;2.15;;;1.05;;
34535;SDS011;20779;55.596;37.538;2022-09-09T10:36:17;2.65;;;0.90;;
34535;SDS011;20779;55.596;37.538;2022-09-09T10:46:57;2.15;;;1.08;;
34535;SDS011;20779;55.596;37.538;2022-09-09T10:53:08;2.20;;;1.17;;
34535;SDS011;20779;55.596;37.538;2022-09-09T10:55:51;2.97;;;1.00;;
34535;SDS011;20779;55.596;37.538;2022-09-09T10:58:35;1.92;;;0.90;;
34535;SDS011;20779;55.596;37.538;2022-09-09T11:01:52;4.75;;;1.02;;
34535;SDS011;20779;55.596;37.538;2022-09-09T11:04:50;5.03;;;1.20;;
34535;SDS011;20779;55.596;37.538;2022-09-09T11:10:16;1.98;;;0.85;;
34535;SDS011;20779;55.596;37.538;2022-09-09T11:13:08;2.40;;;1.00;;
34535;SDS011;20779;55.596;37.538;2022-09-09T11:15:59;4.60;;;1.02;;
34535;SDS011;20779;55.596;37.538;2022-09-09T11:19:26;3.58;;;1.17;;
34535;SDS011;20779;55.596;37.538;2022-09-09T11:22:00;7.82;;;0.95;;
34535;SDS011;20779;55.596;37.538;2022-09-09T11:27:38;2.28;;;1.00;;
34535;SDS011;20779;55.596;37.538;2022-09-09T11:30:27;3.38;;;1.15;;
34535;SDS011;20779;55.596;37.538;2022-09-09T11:33:26;3.58;;;1.17;;
34535;SDS011;20779;55.596;37.538;2022-09-09T11:42:42;1.65;;;0.80;;
34535;SDS011;20779;55.596;37.538;2022-09-09T11:45:10;3.92;;;1.02;;
34535;SDS011;20779;55.596;37.538;2022-09-09T11:47:53;1.88;;;0.93;;
34535;SDS011;20779;55.596;37.538;2022-09-09T11:50:27;2.30;;;0.95;;
34535;SDS011;20779;55.596;37.538;2022-09-09T11:53:16;2.55;;;1.13;;
34535;SDS011;20779;55.596;37.538;2022-09-09T11:56:12;5.53;;;1.75;;
34535;SDS011;20779;55.596;37.538;2022-09-09T11:58:54;5.88;;;1.13;;
34535;SDS011;20779;55.596;37.538;2022-09-09T12:01:43;3.40;;;1.13;;
34535;SDS011;20779;55.596;37.538;2022-09-09T12:10:34;5.60;;;0.98;;
34535;SDS011;20779;55.596;37.538;2022-09-09T12:15:47;6.75;;;0.95;;
34535;SDS011;20779;55.596;37.538;2022-09-09T12:18:21;2.78;;;1.02;;
34535;SDS011;20779;55.596;37.538;2022-09-09T12:23:47;4.32;;;1.00;;
34535;SDS011;20779;55.596;37.538;2022-09-09T12:31:58;1.70;;;0.90;;
34535;SDS011;20779;55.596;37.538;2022-09-09T12:37:44;5.90;;;1.30;;
34535;SDS011;20779;55.596;37.538;2022-09-09T12:39:59;4.43;;;1.20;;
34535;SDS011;20779;55.596;37.538;2022-09-09T12:42:29;1.77;;;1.00;;
34535;SDS011;20779;55.596;37.538;2022-09-09T12:44:59;2.92;;;1.00;;
34535;SDS011;20779;55.596;37.538;2022-09-09T12:47:36;3.15;;;1.10;;
34535;SDS011;20779;55.596;37.538;2022-09-09T12:50:17;3.28;;;0.90;;
34535;SDS011;20779;55.596;37.538;2022-09-09T12:52:47;2.75;;;0.82;;
34535;SDS011;20779;55.596;37.538;2022-09-09T12:55:24;1.42;;;0.70;;
34535;SDS011;20779;55.596;37.538;2022-09-09T12:57:59;5.57;;;1.10;;
34535;SDS011;20779;55.596;37.538;2022-09-09T13:00:29;7.75;;;1.42;;
34535;SDS011;20779;55.596;37.538;2022-09-09T13:02:57;5.05;;;1.20;;
34535;SDS011;20779;55.596;37.538;2022-09-09T13:05:41;2.70;;;0.98;;
34535;SDS011;20779;55.596;37.538;2022-09-09T13:08:09;2.88;;;1.02;;
34535;SDS011;20779;55.596;37.538;2022-09-09T13:10:40;1.33;;;1.00;;
34535;SDS011;20779;55.596;37.538;2022-09-09T13:13:28;1.23;;;0.90;;
34535;SDS011;20779;55.596;37.538;2022-09-09T13:16:01;4.70;;;1.17;;
34535;SDS011;20779;55.596;37.538;2022-09-09T13:18:34;1.42;;;0.98;;
34535;SDS011;20779;55.596;37.538;2022-09-09T13:21:03;3.38;;;0.98;;
34535;SDS011;20779;55.596;37.538;2022-09-09T13:23:31;2.17;;;1.00;;
34535;SDS011;20779;55.596;37.538;2022-09-09T13:26:06;2.42;;;1.00;;
34535;SDS011;20779;55.596;37.538;2022-09-09T13:28:52;1.17;;;0.98;;
34535;SDS011;20779;55.596;37.538;2022-09-09T13:31:21;2.17;;;0.95;;
34535;SDS011;20779;55.596;37.538;2022-09-09T13:33:50;3.13;;;1.00;;
34535;SDS011;20779;55.596;37.538;2022-09-09T13:36:26;5.65;;;1.25;;
34535;SDS011;20779;55.596;37.538;2022-09-09T13:39:00;2.42;;;0.80;;
34535;SDS011;20779;55.596;37.538;2022-09-09T13:41:29;3.65;;;0.80;;
34535;SDS011;20779;55.596;37.538;2022-09-09T13:44:28;4.70;;;1.10;;
34535;SDS011;20779;55.596;37.538;2022-09-09T13:47:02;4.28;;;1.13;;
34535;SDS011;20779;55.596;37.538;2022-09-09T13:49:44;2.90;;;0.75;;
34535;SDS011;20779;55.596;37.538;2022-09-09T13:52:12;3.33;;;1.30;;
34535;SDS011;20779;55.596;37.538;2022-09-09T13:54:47;7.15;;;1.38;;
34535;SDS011;20779;55.596;37.538;2022-09-09T13:57:20;1.92;;;1.10;;
34535;SDS011;20779;55.596;37.538;2022-09-09T13:59:49;2.83;;;1.20;;
34535;SDS011;20779;55.596;37.538;2022-09-09T14:02:16;2.55;;;1.25;;
34535;SDS011;20779;55.596;37.538;2022-09-09T14:04:43;4.75;;;1.23;;
34535;SDS011;20779;55.596;37.538;2022-09-09T14:07:14;4.63;;;1.20;;
34535;SDS011;20779;55.596;37.538;2022-09-09T14:09:42;3.65;;;1.30;;
34535;SDS011;20779;55.596;37.538;2022-09-09T14:12:11;3.15;;;1.30;;
34535;SDS011;20779;55.596;37.538;2022-09-09T14:14:37;2.20;;;0.88;;
34535;SDS011;20779;55.596;37.538;2022-09-09T14:17:04;1.83;;;0.80;;
34535;SDS011;20779;55.596;37.538;2022-09-09T14:19:32;3.65;;;1.20;;
34535;SDS011;20779;55.596;37.538;2022-09-09T14:21:58;6.20;;;1.10;;
34535;SDS011;20779;55.596;37.538;2022-09-09T14:24:26;6.35;;;1.20;;
34535;SDS011;20779;55.596;37.538;2022-09-09T14:26:53;1.92;;;1.25;;
34535;SDS011;20779;55.596;37.538;2022-09-09T14:29:20;8.18;;;1.20;;
34535;SDS011;20779;55.596;37.538;2022-09-09T14:31:46;7.20;;;1.20;;
34535;SDS011;20779;55.596;37.538;2022-09-09T14:34:13;1.73;;;0.80;;
34535;SDS011;20779;55.596;37.538;2022-09-09T14:36:39;2.03;;;0.98;;
34535;SDS011;20779;55.596;37.538;2022-09-09T14:39:07;2.50;;;1.10;;
34535;SDS011;20779;55.596;37.538;2022-09-09T14:41:33;3.45;;;1.25;;
34535;SDS011;20779;55.596;37.538;2022-09-09T14:44:00;3.33;;;1.30;;
34535;SDS011;20779;55.596;37.538;2022-09-09T14:46:26;4.90;;;1.02;;
34535;SDS011;20779;55.596;37.538;2022-09-09T14:48:53;2.78;;;1.10;;
34535;SDS011;20779;55.596;37.538;2022-09-09T14:51:21;2.35;;;1.30;;
34535;SDS011;20779;55.596;37.538;2022-09-09T14:53:53;4.72;;;1.17;;
34535;SDS011;20779;55.596;37.538;2022-09-09T14:56:22;5.82;;;1.20;;
34535;SDS011;20779;55.596;37.538;2022-09-09T14:58:55;4.63;;;1.10;;
34535;SDS011;20779;55.596;37.538;2022-09-09T15:01:23;5.90;;;1.35;;
34535;SDS011;20779;55.596;37.538;2022-09-09T15:03:53;2.95;;;1.63;;
34535;SDS011;20779;55.596;37.538;2022-09-09T15:06:23;4.10;;;1.47;;
34535;SDS011;20779;55.596;37.538;2022-09-09T15:08:52;5.72;;;1.40;;
34535;SDS011;20779;55.596;37.538;2022-09-09T15:11:19;2.15;;;1.42;;
34535;SDS011;20779;55.596;37.538;2022-09-09T15:13:50;4.88;;;1.70;;
34535;SDS011;20779;55.596;37.538;2022-09-09T15:16:18;2.40;;;1.52;;
34535;SDS011;20779;55.596;37.538;2022-09-09T15:18:53;2.92;;;1.15;;
34535;SDS011;20779;55.596;37.538;2022-09-09T15:21:23;4.50;;;1.73;;
34535;SDS011;20779;55.596;37.538;2022-09-09T15:23:52;4.57;;;1.80;;
34535;SDS011;20779;55.596;37.538;2022-09-09T15:26:19;4.43;;;1.50;;
34535;SDS011;20779;55.596;37.538;2022-09-09T15:28:46;6.88;;;2.22;;
34535;SDS011;20779;55.596;37.538;2022-09-09T15:31:25;5.95;;;1.70;;
34535;SDS011;20779;55.596;37.538;2022-09-09T15:33:55;3.95;;;1.77;;
34535;SDS011;20779;55.596;37.538;2022-09-09T16:38:41;3.03;;;1.58;;
34535;SDS011;20779;55.596;37.538;2022-09-09T16:41:08;3.83;;;1.58;;
34535;SDS011;20779;55.596;37.538;2022-09-09T16:43:36;3.53;;;1.30;;
34535;SDS011;20779;55.596;37.538;2022-09-09T16:46:03;4.30;;;2.05;;
34535;SDS011;20779;55.596;37.538;2022-09-09T16:48:44;3.10;;;1.58;;
34535;SDS011;20779;55.596;37.538;2022-09-09T16:51:13;5.60;;;1.48;;
34535;SDS011;20779;55.596;37.538;2022-09-09T16:53:42;3.38;;;1.75;;
34535;SDS011;20779;55.596;37.538;2022-09-09T16:56:10;7.85;;;1.83;;
34535;SDS011;20779;55.596;37.538;2022-09-09T16:58:39;6.07;;;2.03;;
34535;SDS011;20779;55.596;37.538;2022-09-09T17:01:07;9.60;;;2.20;;
34535;SDS011;20779;55.596;37.538;2022-09-09T17:03:33;8.23;;;2.40;;
34535;SDS011;20779;55.596;37.538;2022-09-09T17:06:00;10.77;;;2.08;;
34535;SDS011;20779;55.596;37.538;2022-09-09T17:08:30;12.73;;;2.40;;
34535;SDS011;20779;55.596;37.538;2022-09-09T17:10:56;11.50;;;2.25;;
34535;SDS011;20779;55.596;37.538;2022-09-09T17:13:24;11.90;;;5.88;;
34535;SDS011;20779;55.596;37.538;2022-09-09T17:15:51;3.78;;;1.70;;
34535;SDS011;20779;55.596;37.538;2022-09-09T17:18:17;8.00;;;2.20;;
34535;SDS011;20779;55.596;37.538;2022-09-09T17:20:44;4.20;;;2.10;;
34535;SDS011;20779;55.596;37.538;2022-09-09T17:23:11;7.80;;;2.45;;
34535;SDS011;20779;55.596;37.538;2022-09-09T17:25:41;9.32;;;2.28;;
34535;SDS011;20779;55.596;37.538;2022-09-09T17:28:07;5.90;;;1.90;;
34535;SDS011;20779;55.596;37.538;2022-09-09T17:30:33;4.32;;;1.90;;
34535;SDS011;20779;55.596;37.538;2022-09-09T17:33:02;6.57;;;1.90;;
34535;SDS011;20779;55.596;37.538;2022-09-09T17:35:30;6.80;;;1.83;;
34535;SDS011;20779;55.596;37.538;2022-09-09T17:37:57;5.93;;;2.15;;
34535;SDS011;20779;55.596;37.538;2022-09-09T17:40:24;4.47;;;1.92;;
34535;SDS011;20779;55.596;37.538;2022-09-09T17:42:50;4.88;;;1.88;;
34535;SDS011;20779;55.596;37.538;2022-09-09T17:45:17;10.98;;;2.40;;
34535;SDS011;20779;55.596;37.538;2022-09-09T17:47:44;6.88;;;2.20;;
34535;SDS011;20779;55.596;37.538;2022-09-09T17:50:11;6.30;;;2.40;;
34535;SDS011;20779;55.596;37.538;2022-09-09T17:52:38;9.25;;;2.42;;
34535;SDS011;20779;55.596;37.538;2022-09-09T17:55:06;8.82;;;2.70;;
34535;SDS011;20779;55.596;37.538;2022-09-09T17:57:34;6.25;;;2.45;;
34535;SDS011;20779;55.596;37.538;2022-09-09T18:00:01;10.40;;;2.97;;
34535;SDS011;20779;55.596;37.538;2022-09-09T18:02:37;11.18;;;3.05;;
34535;SDS011;20779;55.596;37.538;2022-09-09T18:05:04;6.70;;;2.60;;
34535;SDS011;20779;55.596;37.538;2022-09-09T18:07:30;6.03;;;3.00;;
34535;SDS011;20779;55.596;37.538;2022-09-09T18:09:57;8.50;;;2.83;;
34535;SDS011;20779;55.596;37.538;2022-09-09T18:12:24;7.63;;;2.67;;
34535;SDS011;20779;55.596;37.538;2022-09-09T18:14:51;10.70;;;2.95;;
34535;SDS011;20779;55.596;37.538;2022-09-09T18:17:18;6.20;;;2.15;;
34535;SDS011;20779;55.596;37.538;2022-09-09T18:19:44;9.98;;;2.90;;
34535;SDS011;20779;55.596;37.538;2022-09-09T18:22:11;5.10;;;2.10;;
34535;SDS011;20779;55.596;37.538;2022-09-09T18:24:38;2.88;;;2.13;;
34535;SDS011;20779;55.596;37.538;2022-09-09T18:27:05;7.50;;;2.50;;
34535;SDS011;20779;55.596;37.538;2022-09-09T18:29:32;9.45;;;2.90;;
34535;SDS011;20779;55.596;37.538;2022-09-09T18:31:59;7.10;;;2.15;;
34535;SDS011;20779;55.596;37.538;2022-09-09T18:34:25;11.05;;;3.40;;
34535;SDS011;20779;55.596;37.538;2022-09-09T19:36:11;6.35;;;3.13;;
34535;SDS011;20779;55.596;37.538;2022-09-09T19:38:39;9.05;;;5.43;;
34535;SDS011;20779;55.596;37.538;2022-09-09T19:41:07;19.95;;;12.30;;
34535;SDS011;20779;55.596;37.538;2022-09-09T19:46:05;7.70;;;3.17;;
34535;SDS011;20779;55.596;37.538;2022-09-09T19:48:34;11.27;;;3.65;;
34535;SDS011;20779;55.596;37.538;2022-09-09T19:53:30;6.85;;;3.00;;
34535;SDS011;20779;55.596;37.538;2022-09-09T19:58:29;9.60;;;3.45;;
34535;SDS011;20779;55.596;37.538;2022-09-09T20:03:45;11.55;;;3.75;;
34535;SDS011;20779;55.596;37.538;2022-09-09T20:06:15;10.85;;;3.67;;
34535;SDS011;20779;55.596;37.538;2022-09-09T20:08:44;13.52;;;3.97;;
34535;SDS011;20779;55.596;37.538;2022-09-09T20:11:13;10.43;;;4.00;;
34535;SDS011;20779;55.596;37.538;2022-09-09T20:13:41;9.30;;;3.28;;
34535;SDS011;20779;55.596;37.538;2022-09-09T20:16:09;5.43;;;2.97;;
34535;SDS011;20779;55.596;37.538;2022-09-09T20:18:40;11.17;;;3.60;;
34535;SDS011;20779;55.596;37.538;2022-09-09T20:21:14;7.95;;;3.78;;
34535;SDS011;20779;55.596;37.538;2022-09-09T20:24:03;12.48;;;4.63;;
34535;SDS011;20779;55.596;37.538;2022-09-09T20:26:33;6.80;;;3.20;;
34535;SDS011;20779;55.596;37.538;2022-09-09T20:29:11;9.68;;;3.13;;
34535;SDS011;20779;55.596;37.538;2022-09-09T20:31:40;8.88;;;3.50;;
34535;SDS011;20779;55.596;37.538;2022-09-09T20:34:12;6.60;;;3.38;;
34535;SDS011;20779;55.596;37.538;2022-09-09T20:36:41;8.35;;;3.40;;
34535;SDS011;20779;55.596;37.538;2022-09-09T20:39:09;7.18;;;2.95;;
34535;SDS011;20779;55.596;37.538;2022-09-09T20:41:41;9.55;;;3.20;;
